sensor_id;sensor_type;location;lat;lon;timestamp;P1;durP1;ratioP1;P2;durP2;ratioP2
67867;SDS011;54672;46.096;14.470;2022-12-07T00:01:18;19.30;;;8.20;;
67867;SDS011;54672;46.096;14.470;2022-12-07T00:03:46;14.52;;;7.45;;
67867;SDS011;54672;46.096;14.470;2022-12-07T00:06:13;14.52;;;6.40;;
67867;SDS011;54672;46.096;14.470;2022-12-07T00:08:40;12.73;;;6.20;;
67867;SDS011;54672;46.096;14.470;2022-12-07T00:11:13;11.45;;;6.10;;
67867;SDS011;54672;46.096;14.470;2022-12-07T00:13:41;12.70;;;6.03;;
67867;SDS011;54672;46.096;14.470;2022-12-07T00:18:34;12.45;;;6.30;;
67867;SDS011;54672;46.096;14.470;2022-12-07T00:21:21;9.35;;;4.75;;
67867;SDS011;54672;46.096;14.470;2022-12-07T00:23:48;11.45;;;5.63;;
67867;SDS011;54672;46.096;14.470;2022-12-07T00:26:27;11.13;;;5.80;;
67867;SDS011;54672;46.096;14.470;2022-12-07T00:28:55;9.55;;;5.10;;
67867;SDS011;54672;46.096;14.470;2022-12-07T00:31:22;12.27;;;5.95;;
67867;SDS011;54672;46.096;14.470;2022-12-07T00:33:50;10.75;;;5.50;;
67867;SDS011;54672;46.096;14.470;2022-12-07T00:36:16;10.25;;;5.20;;
67867;SDS011;54672;46.096;14.470;2022-12-07T00:38:43;10.15;;;4.88;;
67867;SDS011;54672;46.096;14.470;2022-12-07T00:41:13;9.98;;;5.65;;
67867;SDS011;54672;46.096;14.470;2022-12-07T00:43:41;10.60;;;5.78;;
67867;SDS011;54672;46.096;14.470;2022-12-07T00:46:08;9.23;;;5.15;;
67867;SDS011;54672;46.096;14.470;2022-12-07T00:48:34;10.73;;;5.80;;
67867;SDS011;54672;46.096;14.470;2022-12-07T00:51:00;8.00;;;4.57;;
67867;SDS011;54672;46.096;14.470;2022-12-07T00:53:27;8.50;;;4.20;;
67867;SDS011;54672;46.096;14.470;2022-12-07T00:55:52;9.75;;;4.57;;
67867;SDS011;54672;46.096;14.470;2022-12-07T00:58:18;10.85;;;4.95;;
67867;SDS011;54672;46.096;14.470;2022-12-07T01:00:44;10.48;;;5.05;;
67867;SDS011;54672;46.096;14.470;2022-12-07T01:03:10;10.20;;;4.93;;
67867;SDS011;54672;46.096;14.470;2022-12-07T01:05:37;8.80;;;4.00;;
67867;SDS011;54672;46.096;14.470;2022-12-07T01:08:03;8.02;;;4.35;;
67867;SDS011;54672;46.096;14.470;2022-12-07T01:10:29;6.68;;;3.63;;
67867;SDS011;54672;46.096;14.470;2022-12-07T01:12:55;7.82;;;4.60;;
67867;SDS011;54672;46.096;14.470;2022-12-07T01:15:21;8.10;;;4.68;;
67867;SDS011;54672;46.096;14.470;2022-12-07T01:17:47;10.05;;;4.72;;
67867;SDS011;54672;46.096;14.470;2022-12-07T01:20:13;7.75;;;3.80;;
67867;SDS011;54672;46.096;14.470;2022-12-07T01:22:39;8.57;;;4.60;;
67867;SDS011;54672;46.096;14.470;2022-12-07T01:25:08;9.77;;;4.60;;
67867;SDS011;54672;46.096;14.470;2022-12-07T01:27:35;9.45;;;5.07;;
67867;SDS011;54672;46.096;14.470;2022-12-07T01:30:02;10.38;;;4.78;;
67867;SDS011;54672;46.096;14.470;2022-12-07T01:32:29;6.57;;;3.65;;
67867;SDS011;54672;46.096;14.470;2022-12-07T01:34:55;11.40;;;4.40;;
67867;SDS011;54672;46.096;14.470;2022-12-07T01:37:20;8.57;;;3.58;;
67867;SDS011;54672;46.096;14.470;2022-12-07T01:39:49;7.45;;;3.55;;
67867;SDS011;54672;46.096;14.470;2022-12-07T01:42:15;8.55;;;3.80;;
67867;SDS011;54672;46.096;14.470;2022-12-07T01:47:46;6.93;;;3.60;;
67867;SDS011;54672;46.096;14.470;2022-12-07T01:50:16;7.05;;;3.42;;
67867;SDS011;54672;46.096;14.470;2022-12-07T01:52:41;8.48;;;3.60;;
67867;SDS011;54672;46.096;14.470;2022-12-07T01:55:12;5.97;;;3.33;;
67867;SDS011;54672;46.096;14.470;2022-12-07T01:57:42;8.50;;;3.78;;
67867;SDS011;54672;46.096;14.470;2022-12-07T02:00:12;6.25;;;3.15;;
67867;SDS011;54672;46.096;14.470;2022-12-07T02:02:39;6.97;;;3.80;;
67867;SDS011;54672;46.096;14.470;2022-12-07T02:05:08;6.90;;;3.10;;
67867;SDS011;54672;46.096;14.470;2022-12-07T02:07:35;4.43;;;2.83;;
67867;SDS011;54672;46.096;14.470;2022-12-07T02:10:15;6.07;;;3.53;;
67867;SDS011;54672;46.096;14.470;2022-12-07T02:12:43;6.75;;;3.35;;
67867;SDS011;54672;46.096;14.470;2022-12-07T02:15:11;4.15;;;2.65;;
67867;SDS011;54672;46.096;14.470;2022-12-07T02:21:00;6.68;;;2.78;;
67867;SDS011;54672;46.096;14.470;2022-12-07T02:28:37;6.65;;;3.40;;
67867;SDS011;54672;46.096;14.470;2022-12-07T02:31:32;6.15;;;2.80;;
67867;SDS011;54672;46.096;14.470;2022-12-07T02:34:03;5.25;;;2.95;;
67867;SDS011;54672;46.096;14.470;2022-12-07T02:36:43;4.95;;;2.53;;
67867;SDS011;54672;46.096;14.470;2022-12-07T02:39:17;6.47;;;3.40;;
67867;SDS011;54672;46.096;14.470;2022-12-07T02:44:17;5.35;;;2.67;;
67867;SDS011;54672;46.096;14.470;2022-12-07T02:46:52;5.70;;;2.60;;
67867;SDS011;54672;46.096;14.470;2022-12-07T02:49:23;5.30;;;2.65;;
67867;SDS011;54672;46.096;14.470;2022-12-07T02:51:51;5.13;;;2.78;;
67867;SDS011;54672;46.096;14.470;2022-12-07T02:54:18;4.43;;;2.30;;
67867;SDS011;54672;46.096;14.470;2022-12-07T02:59:24;4.70;;;2.47;;
67867;SDS011;54672;46.096;14.470;2022-12-07T03:08:00;4.65;;;2.25;;
67867;SDS011;54672;46.096;14.470;2022-12-07T03:16:15;5.72;;;2.42;;
67867;SDS011;54672;46.096;14.470;2022-12-07T03:18:49;3.83;;;2.03;;
67867;SDS011;54672;46.096;14.470;2022-12-07T03:21:19;3.03;;;1.75;;
67867;SDS011;54672;46.096;14.470;2022-12-07T03:23:49;3.58;;;2.28;;
67867;SDS011;54672;46.096;14.470;2022-12-07T03:26:18;5.00;;;1.98;;
67867;SDS011;54672;46.096;14.470;2022-12-07T03:28:49;4.55;;;2.20;;
67867;SDS011;54672;46.096;14.470;2022-12-07T03:31:22;5.03;;;2.28;;
67867;SDS011;54672;46.096;14.470;2022-12-07T03:33:57;3.22;;;1.88;;
67867;SDS011;54672;46.096;14.470;2022-12-07T03:36:33;4.20;;;2.28;;
67867;SDS011;54672;46.096;14.470;2022-12-07T03:41:44;4.80;;;2.33;;
67867;SDS011;54672;46.096;14.470;2022-12-07T03:44:10;3.80;;;2.15;;
67867;SDS011;54672;46.096;14.470;2022-12-07T03:56:46;3.58;;;2.10;;
67867;SDS011;54672;46.096;14.470;2022-12-07T03:59:13;3.15;;;1.60;;
67867;SDS011;54672;46.096;14.470;2022-12-07T04:01:44;3.05;;;1.77;;
67867;SDS011;54672;46.096;14.470;2022-12-07T04:04:10;4.55;;;2.30;;
67867;SDS011;54672;46.096;14.470;2022-12-07T04:06:36;3.85;;;2.10;;
67867;SDS011;54672;46.096;14.470;2022-12-07T04:09:01;4.07;;;2.30;;
67867;SDS011;54672;46.096;14.470;2022-12-07T04:11:27;6.40;;;2.47;;
67867;SDS011;54672;46.096;14.470;2022-12-07T04:13:52;4.47;;;1.90;;
67867;SDS011;54672;46.096;14.470;2022-12-07T04:16:36;4.20;;;1.90;;
67867;SDS011;54672;46.096;14.470;2022-12-07T04:19:02;3.50;;;2.05;;
67867;SDS011;54672;46.096;14.470;2022-12-07T04:21:27;4.43;;;2.55;;
67867;SDS011;54672;46.096;14.470;2022-12-07T04:23:52;3.80;;;2.10;;
67867;SDS011;54672;46.096;14.470;2022-12-07T04:26:18;4.53;;;2.15;;
67867;SDS011;54672;46.096;14.470;2022-12-07T04:28:43;3.53;;;1.88;;
67867;SDS011;54672;46.096;14.470;2022-12-07T04:31:09;8.07;;;2.00;;
67867;SDS011;54672;46.096;14.470;2022-12-07T04:33:35;4.10;;;2.10;;
67867;SDS011;54672;46.096;14.470;2022-12-07T04:36:00;5.22;;;2.20;;
67867;SDS011;54672;46.096;14.470;2022-12-07T04:38:25;4.22;;;2.15;;
67867;SDS011;54672;46.096;14.470;2022-12-07T04:40:51;4.07;;;1.98;;
67867;SDS011;54672;46.096;14.470;2022-12-07T04:43:16;2.78;;;1.70;;
67867;SDS011;54672;46.096;14.470;2022-12-07T04:45:45;4.13;;;2.05;;
67867;SDS011;54672;46.096;14.470;2022-12-07T04:48:13;5.65;;;2.30;;
67867;SDS011;54672;46.096;14.470;2022-12-07T04:50:39;3.42;;;1.80;;
67867;SDS011;54672;46.096;14.470;2022-12-07T04:53:05;4.85;;;1.88;;
67867;SDS011;54672;46.096;14.470;2022-12-07T04:55:30;3.00;;;1.80;;
67867;SDS011;54672;46.096;14.470;2022-12-07T04:57:55;3.65;;;2.22;;
67867;SDS011;54672;46.096;14.470;2022-12-07T05:00:21;2.17;;;1.48;;
67867;SDS011;54672;46.096;14.470;2022-12-07T05:02:46;3.80;;;1.65;;
67867;SDS011;54672;46.096;14.470;2022-12-07T05:05:12;3.78;;;1.70;;
67867;SDS011;54672;46.096;14.470;2022-12-07T05:07:37;4.32;;;1.90;;
67867;SDS011;54672;46.096;14.470;2022-12-07T05:10:03;2.97;;;1.55;;
67867;SDS011;54672;46.096;14.470;2022-12-07T05:12:29;3.55;;;1.50;;
67867;SDS011;54672;46.096;14.470;2022-12-07T05:14:55;3.35;;;1.58;;
67867;SDS011;54672;46.096;14.470;2022-12-07T05:17:20;2.22;;;1.40;;
67867;SDS011;54672;46.096;14.470;2022-12-07T05:19:45;2.80;;;1.60;;
67867;SDS011;54672;46.096;14.470;2022-12-07T05:22:11;5.25;;;1.60;;
67867;SDS011;54672;46.096;14.470;2022-12-07T05:24:37;4.15;;;1.90;;
67867;SDS011;54672;46.096;14.470;2022-12-07T05:27:03;3.25;;;1.60;;
67867;SDS011;54672;46.096;14.470;2022-12-07T05:29:28;4.18;;;1.70;;
67867;SDS011;54672;46.096;14.470;2022-12-07T05:31:53;3.47;;;1.77;;
67867;SDS011;54672;46.096;14.470;2022-12-07T05:34:19;4.45;;;1.90;;
67867;SDS011;54672;46.096;14.470;2022-12-07T05:36:44;2.30;;;1.42;;
67867;SDS011;54672;46.096;14.470;2022-12-07T05:39:10;3.00;;;1.65;;
67867;SDS011;54672;46.096;14.470;2022-12-07T05:41:35;3.17;;;1.70;;
67867;SDS011;54672;46.096;14.470;2022-12-07T05:44:19;3.70;;;2.05;;
67867;SDS011;54672;46.096;14.470;2022-12-07T05:46:45;3.33;;;1.75;;
67867;SDS011;54672;46.096;14.470;2022-12-07T05:49:10;3.33;;;1.85;;
67867;SDS011;54672;46.096;14.470;2022-12-07T05:51:35;4.20;;;1.80;;
67867;SDS011;54672;46.096;14.470;2022-12-07T05:54:01;4.38;;;2.10;;
67867;SDS011;54672;46.096;14.470;2022-12-07T05:56:26;5.72;;;2.35;;
67867;SDS011;54672;46.096;14.470;2022-12-07T05:58:52;4.05;;;1.73;;
67867;SDS011;54672;46.096;14.470;2022-12-07T06:01:36;3.63;;;1.92;;
67867;SDS011;54672;46.096;14.470;2022-12-07T06:04:01;3.70;;;1.95;;
67867;SDS011;54672;46.096;14.470;2022-12-07T06:06:27;4.13;;;2.20;;
67867;SDS011;54672;46.096;14.470;2022-12-07T06:08:52;3.88;;;2.05;;
67867;SDS011;54672;46.096;14.470;2022-12-07T06:11:18;5.38;;;2.30;;
67867;SDS011;54672;46.096;14.470;2022-12-07T06:14:01;4.40;;;2.40;;
67867;SDS011;54672;46.096;14.470;2022-12-07T06:16:27;4.38;;;2.33;;
67867;SDS011;54672;46.096;14.470;2022-12-07T06:18:52;4.50;;;2.10;;
67867;SDS011;54672;46.096;14.470;2022-12-07T06:21:18;4.80;;;2.50;;
67867;SDS011;54672;46.096;14.470;2022-12-07T06:23:44;3.78;;;2.00;;
67867;SDS011;54672;46.096;14.470;2022-12-07T06:26:09;4.63;;;2.03;;
67867;SDS011;54672;46.096;14.470;2022-12-07T06:28:35;4.25;;;2.10;;
67867;SDS011;54672;46.096;14.470;2022-12-07T06:31:01;3.30;;;1.98;;
67867;SDS011;54672;46.096;14.470;2022-12-07T06:33:27;3.72;;;1.80;;
67867;SDS011;54672;46.096;14.470;2022-12-07T06:35:53;4.70;;;2.13;;
67867;SDS011;54672;46.096;14.470;2022-12-07T06:38:19;2.90;;;2.00;;
67867;SDS011;54672;46.096;14.470;2022-12-07T06:40:45;7.35;;;2.63;;
67867;SDS011;54672;46.096;14.470;2022-12-07T06:43:10;3.58;;;1.88;;
67867;SDS011;54672;46.096;14.470;2022-12-07T06:45:36;4.07;;;2.20;;
67867;SDS011;54672;46.096;14.470;2022-12-07T06:48:01;4.97;;;2.28;;
67867;SDS011;54672;46.096;14.470;2022-12-07T06:50:26;6.40;;;2.13;;
67867;SDS011;54672;46.096;14.470;2022-12-07T06:52:52;4.10;;;2.13;;
67867;SDS011;54672;46.096;14.470;2022-12-07T06:55:17;3.95;;;2.03;;
67867;SDS011;54672;46.096;14.470;2022-12-07T06:57:43;4.57;;;2.25;;
67867;SDS011;54672;46.096;14.470;2022-12-07T07:00:08;4.70;;;2.45;;
67867;SDS011;54672;46.096;14.470;2022-12-07T07:02:34;4.93;;;2.40;;
67867;SDS011;54672;46.096;14.470;2022-12-07T07:05:00;8.05;;;3.95;;
67867;SDS011;54672;46.096;14.470;2022-12-07T07:07:25;5.43;;;2.85;;
67867;SDS011;54672;46.096;14.470;2022-12-07T07:09:51;5.32;;;2.75;;
67867;SDS011;54672;46.096;14.470;2022-12-07T07:12:16;5.00;;;2.70;;
67867;SDS011;54672;46.096;14.470;2022-12-07T07:14:41;5.18;;;2.13;;
67867;SDS011;54672;46.096;14.470;2022-12-07T07:17:08;4.95;;;1.98;;
67867;SDS011;54672;46.096;14.470;2022-12-07T07:19:33;6.03;;;2.30;;
67867;SDS011;54672;46.096;14.470;2022-12-07T07:21:59;3.88;;;2.03;;
67867;SDS011;54672;46.096;14.470;2022-12-07T07:24:24;6.57;;;2.38;;
67867;SDS011;54672;46.096;14.470;2022-12-07T07:26:49;3.80;;;2.22;;
67867;SDS011;54672;46.096;14.470;2022-12-07T07:29:15;4.05;;;1.90;;
67867;SDS011;54672;46.096;14.470;2022-12-07T07:31:40;3.08;;;1.95;;
67867;SDS011;54672;46.096;14.470;2022-12-07T07:34:06;2.65;;;1.67;;
67867;SDS011;54672;46.096;14.470;2022-12-07T07:36:31;3.88;;;1.98;;
67867;SDS011;54672;46.096;14.470;2022-12-07T07:38:57;5.90;;;2.40;;
67867;SDS011;54672;46.096;14.470;2022-12-07T07:41:22;3.55;;;2.03;;
67867;SDS011;54672;46.096;14.470;2022-12-07T07:43:48;6.13;;;2.72;;
67867;SDS011;54672;46.096;14.470;2022-12-07T07:46:13;3.70;;;1.73;;
67867;SDS011;54672;46.096;14.470;2022-12-07T07:48:39;2.60;;;1.67;;
67867;SDS011;54672;46.096;14.470;2022-12-07T07:51:05;5.15;;;2.88;;
67867;SDS011;54672;46.096;14.470;2022-12-07T07:53:33;5.93;;;3.03;;
67867;SDS011;54672;46.096;14.470;2022-12-07T07:55:59;4.10;;;2.20;;
67867;SDS011;54672;46.096;14.470;2022-12-07T07:58:24;6.50;;;2.65;;
67867;SDS011;54672;46.096;14.470;2022-12-07T08:00:50;4.13;;;2.28;;
67867;SDS011;54672;46.096;14.470;2022-12-07T08:03:16;4.22;;;2.13;;
67867;SDS011;54672;46.096;14.470;2022-12-07T08:05:41;5.32;;;2.40;;
67867;SDS011;54672;46.096;14.470;2022-12-07T08:08:07;5.85;;;2.40;;
67867;SDS011;54672;46.096;14.470;2022-12-07T08:10:32;5.18;;;2.28;;
67867;SDS011;54672;46.096;14.470;2022-12-07T08:12:59;4.05;;;1.92;;
67867;SDS011;54672;46.096;14.470;2022-12-07T08:15:38;4.15;;;1.92;;
67867;SDS011;54672;46.096;14.470;2022-12-07T08:18:05;3.83;;;1.88;;
67867;SDS011;54672;46.096;14.470;2022-12-07T08:20:31;4.07;;;1.83;;
67867;SDS011;54672;46.096;14.470;2022-12-07T08:22:58;5.07;;;2.55;;
67867;SDS011;54672;46.096;14.470;2022-12-07T08:25:23;5.53;;;2.42;;
67867;SDS011;54672;46.096;14.470;2022-12-07T08:27:49;4.70;;;2.60;;
67867;SDS011;54672;46.096;14.470;2022-12-07T08:30:15;4.22;;;2.03;;
67867;SDS011;54672;46.096;14.470;2022-12-07T08:32:41;4.90;;;2.25;;
67867;SDS011;54672;46.096;14.470;2022-12-07T08:35:07;8.48;;;2.70;;
67867;SDS011;54672;46.096;14.470;2022-12-07T08:37:33;11.02;;;2.65;;
67867;SDS011;54672;46.096;14.470;2022-12-07T08:39:58;5.45;;;2.67;;
67867;SDS011;54672;46.096;14.470;2022-12-07T08:42:24;6.55;;;2.58;;
67867;SDS011;54672;46.096;14.470;2022-12-07T08:44:54;7.57;;;2.75;;
67867;SDS011;54672;46.096;14.470;2022-12-07T08:47:20;6.10;;;2.67;;
67867;SDS011;54672;46.096;14.470;2022-12-07T08:49:46;4.10;;;1.80;;
67867;SDS011;54672;46.096;14.470;2022-12-07T08:52:13;3.58;;;2.00;;
67867;SDS011;54672;46.096;14.470;2022-12-07T08:54:39;9.70;;;3.63;;
67867;SDS011;54672;46.096;14.470;2022-12-07T08:57:05;4.50;;;2.40;;
67867;SDS011;54672;46.096;14.470;2022-12-07T08:59:32;5.55;;;2.58;;
67867;SDS011;54672;46.096;14.470;2022-12-07T09:02:00;5.30;;;2.22;;
67867;SDS011;54672;46.096;14.470;2022-12-07T09:04:26;6.55;;;2.80;;
67867;SDS011;54672;46.096;14.470;2022-12-07T09:06:53;4.30;;;2.50;;
67867;SDS011;54672;46.096;14.470;2022-12-07T09:09:19;8.57;;;2.83;;
67867;SDS011;54672;46.096;14.470;2022-12-07T09:11:44;5.22;;;2.50;;
67867;SDS011;54672;46.096;14.470;2022-12-07T09:14:10;6.65;;;2.83;;
67867;SDS011;54672;46.096;14.470;2022-12-07T09:16:35;7.05;;;2.85;;
67867;SDS011;54672;46.096;14.470;2022-12-07T09:19:01;5.18;;;2.97;;
67867;SDS011;54672;46.096;14.470;2022-12-07T09:21:26;6.22;;;3.05;;
67867;SDS011;54672;46.096;14.470;2022-12-07T09:23:52;4.95;;;2.65;;
67867;SDS011;54672;46.096;14.470;2022-12-07T09:26:17;5.03;;;2.60;;
67867;SDS011;54672;46.096;14.470;2022-12-07T09:28:42;6.35;;;2.92;;
67867;SDS011;54672;46.096;14.470;2022-12-07T09:31:08;6.25;;;2.55;;
67867;SDS011;54672;46.096;14.470;2022-12-07T09:33:33;5.75;;;3.22;;
67867;SDS011;54672;46.096;14.470;2022-12-07T09:35:59;6.32;;;2.88;;
67867;SDS011;54672;46.096;14.470;2022-12-07T09:38:24;6.65;;;2.97;;
67867;SDS011;54672;46.096;14.470;2022-12-07T09:40:51;5.78;;;3.25;;
67867;SDS011;54672;46.096;14.470;2022-12-07T09:43:18;6.68;;;3.47;;
67867;SDS011;54672;46.096;14.470;2022-12-07T09:45:46;7.22;;;3.33;;
67867;SDS011;54672;46.096;14.470;2022-12-07T09:48:17;5.72;;;3.15;;
67867;SDS011;54672;46.096;14.470;2022-12-07T09:50:46;8.13;;;3.50;;
67867;SDS011;54672;46.096;14.470;2022-12-07T09:53:14;5.18;;;2.70;;
67867;SDS011;54672;46.096;14.470;2022-12-07T09:55:44;6.45;;;2.88;;
67867;SDS011;54672;46.096;14.470;2022-12-07T09:58:12;5.28;;;2.95;;
67867;SDS011;54672;46.096;14.470;2022-12-07T10:00:55;5.82;;;3.30;;
67867;SDS011;54672;46.096;14.470;2022-12-07T10:03:26;6.65;;;3.42;;
67867;SDS011;54672;46.096;14.470;2022-12-07T10:05:52;5.47;;;2.70;;
67867;SDS011;54672;46.096;14.470;2022-12-07T10:08:18;6.45;;;2.92;;
67867;SDS011;54672;46.096;14.470;2022-12-07T10:10:43;4.90;;;2.88;;
67867;SDS011;54672;46.096;14.470;2022-12-07T10:13:11;5.38;;;2.83;;
67867;SDS011;54672;46.096;14.470;2022-12-07T10:15:43;5.85;;;2.70;;
67867;SDS011;54672;46.096;14.470;2022-12-07T10:18:18;3.72;;;2.38;;
67867;SDS011;54672;46.096;14.470;2022-12-07T10:20:46;6.22;;;3.65;;
67867;SDS011;54672;46.096;14.470;2022-12-07T10:23:16;7.05;;;3.88;;
67867;SDS011;54672;46.096;14.470;2022-12-07T10:25:43;5.28;;;2.97;;
67867;SDS011;54672;46.096;14.470;2022-12-07T10:35:55;6.50;;;3.08;;
67867;SDS011;54672;46.096;14.470;2022-12-07T10:38:21;6.97;;;3.28;;
67867;SDS011;54672;46.096;14.470;2022-12-07T10:40:46;8.07;;;3.30;;
67867;SDS011;54672;46.096;14.470;2022-12-07T10:50:55;5.75;;;3.33;;
67867;SDS011;54672;46.096;14.470;2022-12-07T10:53:36;6.53;;;3.28;;
67867;SDS011;54672;46.096;14.470;2022-12-07T10:58:55;9.95;;;3.42;;
67867;SDS011;54672;46.096;14.470;2022-12-07T11:04:39;9.05;;;3.50;;
67867;SDS011;54672;46.096;14.470;2022-12-07T11:18:02;6.45;;;3.75;;
67867;SDS011;54672;46.096;14.470;2022-12-07T11:23:26;8.60;;;3.60;;
67867;SDS011;54672;46.096;14.470;2022-12-07T11:28:47;8.20;;;3.90;;
67867;SDS011;54672;46.096;14.470;2022-12-07T11:31:41;7.13;;;3.83;;
67867;SDS011;54672;46.096;14.470;2022-12-07T11:37:38;6.22;;;4.10;;
67867;SDS011;54672;46.096;14.470;2022-12-07T11:42:57;8.30;;;4.28;;
67867;SDS011;54672;46.096;14.470;2022-12-07T11:45:26;13.68;;;3.88;;
67867;SDS011;54672;46.096;14.470;2022-12-07T11:55:41;8.02;;;4.60;;
67867;SDS011;54672;46.096;14.470;2022-12-07T12:01:47;8.98;;;5.03;;
67867;SDS011;54672;46.096;14.470;2022-12-07T12:03:48;7.78;;;3.75;;
67867;SDS011;54672;46.096;14.470;2022-12-07T12:06:16;8.25;;;4.35;;
67867;SDS011;54672;46.096;14.470;2022-12-07T12:23:14;8.05;;;4.40;;
67867;SDS011;54672;46.096;14.470;2022-12-07T12:25:45;8.05;;;4.82;;
67867;SDS011;54672;46.096;14.470;2022-12-07T12:33:36;9.07;;;4.50;;
67867;SDS011;54672;46.096;14.470;2022-12-07T12:36:17;8.20;;;4.50;;
67867;SDS011;54672;46.096;14.470;2022-12-07T12:47:37;10.82;;;5.32;;
67867;SDS011;54672;46.096;14.470;2022-12-07T12:57:33;10.98;;;5.65;;
67867;SDS011;54672;46.096;14.470;2022-12-07T13:00:00;9.40;;;4.55;;
67867;SDS011;54672;46.096;14.470;2022-12-07T13:02:55;8.60;;;4.57;;
67867;SDS011;54672;46.096;14.470;2022-12-07T13:05:30;8.68;;;4.72;;
67867;SDS011;54672;46.096;14.470;2022-12-07T13:13:29;9.98;;;4.50;;
67867;SDS011;54672;46.096;14.470;2022-12-07T13:15:56;8.60;;;5.00;;
67867;SDS011;54672;46.096;14.470;2022-12-07T13:18:39;10.52;;;4.60;;
67867;SDS011;54672;46.096;14.470;2022-12-07T13:29:11;16.75;;;8.52;;
67867;SDS011;54672;46.096;14.470;2022-12-07T13:31:40;16.75;;;7.40;;
67867;SDS011;54672;46.096;14.470;2022-12-07T13:34:27;14.45;;;7.75;;
67867;SDS011;54672;46.096;14.470;2022-12-07T13:36:58;13.82;;;7.50;;
67867;SDS011;54672;46.096;14.470;2022-12-07T13:39:26;19.15;;;8.93;;
67867;SDS011;54672;46.096;14.470;2022-12-07T13:41:53;24.13;;;9.20;;
67867;SDS011;54672;46.096;14.470;2022-12-07T13:44:21;20.70;;;9.35;;
67867;SDS011;54672;46.096;14.470;2022-12-07T13:49:59;17.50;;;8.48;;
67867;SDS011;54672;46.096;14.470;2022-12-07T13:52:23;20.90;;;8.82;;
67867;SDS011;54672;46.096;14.470;2022-12-07T13:55:00;22.92;;;8.95;;
67867;SDS011;54672;46.096;14.470;2022-12-07T13:57:32;17.60;;;8.43;;
67867;SDS011;54672;46.096;14.470;2022-12-07T14:00:00;17.50;;;8.60;;
67867;SDS011;54672;46.096;14.470;2022-12-07T14:02:28;16.55;;;8.80;;
67867;SDS011;54672;46.096;14.470;2022-12-07T14:05:14;30.85;;;12.02;;
67867;SDS011;54672;46.096;14.470;2022-12-07T14:10:23;20.83;;;8.65;;
67867;SDS011;54672;46.096;14.470;2022-12-07T14:12:57;20.00;;;8.57;;
67867;SDS011;54672;46.096;14.470;2022-12-07T14:15:24;26.20;;;9.60;;
67867;SDS011;54672;46.096;14.470;2022-12-07T14:17:55;62.58;;;18.52;;
67867;SDS011;54672;46.096;14.470;2022-12-07T14:20:29;26.48;;;9.65;;
67867;SDS011;54672;46.096;14.470;2022-12-07T14:22:55;30.02;;;11.18;;
67867;SDS011;54672;46.096;14.470;2022-12-07T14:25:22;39.13;;;12.07;;
67867;SDS011;54672;46.096;14.470;2022-12-07T14:30:27;38.15;;;12.38;;
67867;SDS011;54672;46.096;14.470;2022-12-07T14:32:57;44.33;;;14.27;;
67867;SDS011;54672;46.096;14.470;2022-12-07T14:35:25;26.15;;;10.27;;
67867;SDS011;54672;46.096;14.470;2022-12-07T14:37:51;23.42;;;10.90;;
67867;SDS011;54672;46.096;14.470;2022-12-07T14:40:34;25.55;;;10.00;;
67867;SDS011;54672;46.096;14.470;2022-12-07T14:43:03;21.27;;;9.65;;
67867;SDS011;54672;46.096;14.470;2022-12-07T14:45:31;19.50;;;8.73;;
67867;SDS011;54672;46.096;14.470;2022-12-07T14:47:57;16.48;;;8.60;;
67867;SDS011;54672;46.096;14.470;2022-12-07T14:50:23;17.48;;;8.77;;
67867;SDS011;54672;46.096;14.470;2022-12-07T14:52:54;18.52;;;8.98;;
67867;SDS011;54672;46.096;14.470;2022-12-07T14:57:51;19.75;;;9.40;;
67867;SDS011;54672;46.096;14.470;2022-12-07T15:00:17;21.98;;;9.43;;
67867;SDS011;54672;46.096;14.470;2022-12-07T15:02:44;34.42;;;10.25;;
67867;SDS011;54672;46.096;14.470;2022-12-07T15:05:12;17.45;;;8.43;;
67867;SDS011;54672;46.096;14.470;2022-12-07T15:07:38;25.58;;;9.38;;
67867;SDS011;54672;46.096;14.470;2022-12-07T15:10:04;23.88;;;9.75;;
67867;SDS011;54672;46.096;14.470;2022-12-07T15:12:30;22.95;;;9.65;;
67867;SDS011;54672;46.096;14.470;2022-12-07T15:14:55;23.42;;;9.60;;
67867;SDS011;54672;46.096;14.470;2022-12-07T15:17:21;19.67;;;9.30;;
67867;SDS011;54672;46.096;14.470;2022-12-07T15:19:46;18.77;;;9.30;;
67867;SDS011;54672;46.096;14.470;2022-12-07T15:22:12;19.38;;;9.52;;
67867;SDS011;54672;46.096;14.470;2022-12-07T15:24:37;17.77;;;9.88;;
67867;SDS011;54672;46.096;14.470;2022-12-07T15:27:03;16.52;;;8.65;;
67867;SDS011;54672;46.096;14.470;2022-12-07T15:29:28;20.00;;;9.65;;
67867;SDS011;54672;46.096;14.470;2022-12-07T15:31:54;19.67;;;9.98;;
67867;SDS011;54672;46.096;14.470;2022-12-07T15:34:19;29.33;;;10.30;;
67867;SDS011;54672;46.096;14.470;2022-12-07T15:36:45;22.67;;;9.73;;
67867;SDS011;54672;46.096;14.470;2022-12-07T15:39:10;21.67;;;11.18;;
67867;SDS011;54672;46.096;14.470;2022-12-07T15:41:36;20.55;;;11.10;;
67867;SDS011;54672;46.096;14.470;2022-12-07T15:44:02;20.45;;;9.73;;
67867;SDS011;54672;46.096;14.470;2022-12-07T15:46:46;23.65;;;10.10;;
67867;SDS011;54672;46.096;14.470;2022-12-07T15:49:13;20.23;;;10.15;;
67867;SDS011;54672;46.096;14.470;2022-12-07T15:51:41;20.80;;;9.18;;
67867;SDS011;54672;46.096;14.470;2022-12-07T15:54:07;21.10;;;10.80;;
67867;SDS011;54672;46.096;14.470;2022-12-07T15:56:36;22.55;;;11.18;;
67867;SDS011;54672;46.096;14.470;2022-12-07T15:59:02;22.73;;;11.00;;
67867;SDS011;54672;46.096;14.470;2022-12-07T16:01:27;22.55;;;10.23;;
67867;SDS011;54672;46.096;14.470;2022-12-07T16:03:53;21.15;;;10.27;;
67867;SDS011;54672;46.096;14.470;2022-12-07T16:06:19;36.42;;;13.52;;
67867;SDS011;54672;46.096;14.470;2022-12-07T16:08:44;61.63;;;22.17;;
67867;SDS011;54672;46.096;14.470;2022-12-07T16:11:11;23.27;;;10.63;;
67867;SDS011;54672;46.096;14.470;2022-12-07T16:13:36;28.77;;;12.18;;
67867;SDS011;54672;46.096;14.470;2022-12-07T16:16:08;22.88;;;10.85;;
67867;SDS011;54672;46.096;14.470;2022-12-07T16:18:39;23.85;;;11.23;;
67867;SDS011;54672;46.096;14.470;2022-12-07T16:21:04;24.52;;;9.80;;
67867;SDS011;54672;46.096;14.470;2022-12-07T16:23:29;27.80;;;11.93;;
67867;SDS011;54672;46.096;14.470;2022-12-07T16:26:02;25.38;;;11.40;;
67867;SDS011;54672;46.096;14.470;2022-12-07T16:28:29;23.15;;;10.10;;
67867;SDS011;54672;46.096;14.470;2022-12-07T16:31:05;22.05;;;9.70;;
67867;SDS011;54672;46.096;14.470;2022-12-07T16:33:33;31.98;;;12.73;;
67867;SDS011;54672;46.096;14.470;2022-12-07T16:36:00;22.98;;;10.43;;
67867;SDS011;54672;46.096;14.470;2022-12-07T16:38:25;59.15;;;19.30;;
67867;SDS011;54672;46.096;14.470;2022-12-07T16:40:52;40.17;;;14.45;;
67867;SDS011;54672;46.096;14.470;2022-12-07T16:43:17;23.10;;;9.73;;
67867;SDS011;54672;46.096;14.470;2022-12-07T16:45:44;21.17;;;10.30;;
67867;SDS011;54672;46.096;14.470;2022-12-07T16:48:11;27.60;;;12.25;;
67867;SDS011;54672;46.096;14.470;2022-12-07T16:50:38;63.35;;;23.45;;
67867;SDS011;54672;46.096;14.470;2022-12-07T16:53:05;29.08;;;11.40;;
67867;SDS011;54672;46.096;14.470;2022-12-07T16:55:31;39.30;;;13.98;;
67867;SDS011;54672;46.096;14.470;2022-12-07T16:58:00;50.30;;;17.15;;
67867;SDS011;54672;46.096;14.470;2022-12-07T17:00:26;119.72;;;32.88;;
67867;SDS011;54672;46.096;14.470;2022-12-07T17:02:51;94.15;;;26.95;;
67867;SDS011;54672;46.096;14.470;2022-12-07T17:05:17;188.45;;;49.92;;
67867;SDS011;54672;46.096;14.470;2022-12-07T17:07:42;126.60;;;35.13;;
67867;SDS011;54672;46.096;14.470;2022-12-07T17:10:08;36.83;;;15.65;;
67867;SDS011;54672;46.096;14.470;2022-12-07T17:12:33;32.92;;;12.43;;